Time;durP1;ratioP1;P1;durP2;ratioP2;P2;SDS_P1;SDS_P2;PMS_P1;PMS_P2;Temp;Humidity;BMP_temperature;BMP_pressure;BME280_temperature;BME280_humidity;BME280_pressure;Samples;Min_cycle;Max_cycle;Signal;HPM_P1;HPM_P2
2022/01/30 00:00:10;;;;;;;16.42;2.25;;;6.50;99.90;;;;;;5112690;28;20043;-69
2022/01/30 00:02:36;;;;;;;13.88;2.15;;;6.30;99.90;;;;;;5112836;28;20048;-71
2022/01/30 00:05:01;;;;;;;15.45;2.70;;;6.60;99.90;;;;;;5114071;28;20119;-72
2022/01/30 00:07:27;;;;;;;14.75;2.70;;;6.10;99.90;;;;;;5113781;28;20043;-71
2022/01/30 00:09:53;;;;;;;11.25;2.13;;;6.40;99.90;;;;;;5062234;28;20044;-76
2022/01/30 00:12:26;;;;;;;14.23;3.38;;;6.30;99.90;;;;;;5112665;28;20040;-70
2022/01/30 00:14:55;;;;;;;22.02;3.58;;;6.10;99.90;;;;;;5114069;28;20048;-69
2022/01/30 00:17:26;;;;;;;12.02;2.08;;;6.20;99.90;;;;;;5079746;28;20048;-72
2022/01/30 00:19:58;;;;;;;11.95;1.95;;;6.30;99.90;;;;;;5114004;28;20498;-77
2022/01/30 00:27:29;;;;;;;13.82;2.00;;;6.60;99.90;;;;;;5117249;28;20047;-70
2022/01/30 00:29:55;;;;;;;7.70;1.40;;;6.60;99.90;;;;;;5117529;28;20047;-70
2022/01/30 00:32:21;;;;;;;9.07;1.20;;;6.20;99.90;;;;;;5117502;27;20424;-71
2022/01/30 00:34:47;;;;;;;12.48;1.83;;;6.50;99.90;;;;;;5083440;28;20456;-74
2022/01/30 00:37:12;;;;;;;12.68;1.80;;;6.20;99.90;;;;;;5117346;28;20047;-71
2022/01/30 00:39:38;;;;;;;14.70;2.00;;;6.80;99.90;;;;;;5117077;28;20050;-76
2022/01/30 00:42:04;;;;;;;14.40;1.65;;;6.70;99.90;;;;;;5117330;28;20118;-76
2022/01/30 00:44:30;;;;;;;10.38;1.65;;;6.10;99.90;;;;;;5116822;28;20044;-74
2022/01/30 00:46:58;;;;;;;5.95;1.10;;;6.40;99.90;;;;;;5117262;28;20044;-71
2022/01/30 00:49:24;;;;;;;6.13;1.27;;;6.40;99.90;;;;;;5117128;28;20047;-68
2022/01/30 00:51:50;;;;;;;8.40;1.88;;;6.20;99.90;;;;;;5115890;28;20047;-72
2022/01/30 00:54:16;;;;;;;9.52;1.10;;;6.10;99.90;;;;;;5116784;28;20491;-69
2022/01/30 00:56:41;;;;;;;6.82;0.90;;;6.00;99.90;;;;;;5117787;28;20039;-73
2022/01/30 00:59:07;;;;;;;11.32;2.10;;;6.00;99.90;;;;;;5116952;28;20122;-71
2022/01/30 01:01:33;;;;;;;9.13;1.40;;;6.30;99.90;;;;;;5116781;28;20083;-74
2022/01/30 01:03:59;;;;;;;9.02;1.40;;;6.30;99.90;;;;;;5115631;28;20043;-72
2022/01/30 01:06:25;;;;;;;11.98;2.20;;;6.40;99.90;;;;;;5115488;28;20051;-74
2022/01/30 01:09:02;;;;;;;13.43;1.70;;;6.70;99.90;;;;;;5116620;28;20047;-71
2022/01/30 01:24:47;;;;;;;15.23;3.17;;;5.90;99.90;;;;;;5094620;28;20048;-70
2022/01/30 01:27:13;;;;;;;13.70;2.17;;;5.90;99.90;;;;;;5116444;28;20444;-72
2022/01/30 01:29:38;;;;;;;16.23;3.13;;;5.90;99.90;;;;;;5115065;28;20042;-76
2022/01/30 01:32:05;;;;;;;14.98;2.30;;;6.10;99.90;;;;;;5115349;28;20040;-73
2022/01/30 01:34:37;;;;;;;12.55;2.60;;;5.90;99.90;;;;;;5099008;28;20134;-70
2022/01/30 01:37:03;;;;;;;18.10;2.22;;;6.30;99.90;;;;;;5116880;28;20047;-72
2022/01/30 01:39:29;;;;;;;19.63;2.53;;;6.00;99.90;;;;;;5115410;28;20051;-75
2022/01/30 01:41:55;;;;;;;17.80;2.35;;;6.30;99.90;;;;;;5116184;28;20044;-72
2022/01/30 01:44:35;;;;;;;18.73;3.25;;;6.20;99.90;;;;;;5116441;28;20506;-71
2022/01/30 01:47:02;;;;;;;18.48;3.30;;;6.60;99.90;;;;;;5098156;28;20048;-75
2022/01/30 01:49:31;;;;;;;18.70;3.22;;;6.20;99.90;;;;;;5115976;28;20040;-71
2022/01/30 01:52:18;;;;;;;21.23;3.17;;;6.70;99.90;;;;;;5115935;28;20043;-74
2022/01/30 01:54:55;;;;;;;13.73;2.40;;;6.40;99.90;;;;;;5114583;28;20143;-68
2022/01/30 01:57:23;;;;;;;15.00;2.45;;;6.40;99.90;;;;;;5115488;28;20120;-75
2022/01/30 01:59:48;;;;;;;11.30;2.17;;;6.20;99.90;;;;;;5115761;28;20042;-72
2022/01/30 02:02:15;;;;;;;8.60;2.22;;;6.10;99.90;;;;;;5114726;28;20069;-72
2022/01/30 02:04:42;;;;;;;19.70;2.50;;;6.20;99.90;;;;;;5115549;28;20069;-73
2022/01/30 02:09:49;;;;;;;19.52;2.60;;;6.40;99.90;;;;;;5114982;28;20103;-69
2022/01/30 02:12:20;;;;;;;14.57;2.95;;;6.40;99.90;;;;;;5115585;28;20126;-70
2022/01/30 02:25:57;;;;;;;19.95;3.13;;;6.10;99.90;;;;;;5115118;28;20134;-69
2022/01/30 02:28:25;;;;;;;23.23;3.78;;;6.20;99.90;;;;;;5115314;27;20055;-70
2022/01/30 02:31:03;;;;;;;16.45;3.10;;;6.10;99.90;;;;;;5114223;28;20104;-73
2022/01/30 02:33:29;;;;;;;19.23;3.40;;;6.20;99.90;;;;;;5099261;28;20048;-71
2022/01/30 02:35:55;;;;;;;16.00;3.03;;;6.30;99.90;;;;;;5113880;28;20135;-72
2022/01/30 02:38:25;;;;;;;15.77;3.10;;;6.10;99.90;;;;;;5114921;28;20091;-72
2022/01/30 02:40:54;;;;;;;20.02;3.65;;;6.30;99.90;;;;;;5113814;28;20043;-69
2022/01/30 02:43:25;;;;;;;16.38;2.50;;;6.40;99.90;;;;;;5115030;28;20457;-75
2022/01/30 02:46:04;;;;;;;16.23;2.70;;;6.70;99.90;;;;;;5114179;28;20108;-70
2022/01/30 02:48:55;;;;;;;12.20;2.85;;;6.50;99.90;;;;;;5115718;28;20051;-70
2022/01/30 02:51:22;;;;;;;16.48;3.15;;;6.30;99.90;;;;;;5096924;28;20130;-70
2022/01/30 02:54:02;;;;;;;18.67;3.00;;;6.20;99.90;;;;;;5113258;28;20124;-72
2022/01/30 02:56:29;;;;;;;12.30;2.20;;;7.00;99.90;;;;;;5114666;28;20052;-71
2022/01/30 02:58:55;;;;;;;11.48;2.15;;;6.20;99.90;;;;;;5114622;28;20043;-71
2022/01/30 03:01:20;;;;;;;11.20;2.90;;;6.30;99.90;;;;;;5114660;28;20054;-69
2022/01/30 03:03:46;;;;;;;16.85;2.75;;;6.60;99.90;;;;;;5113626;28;20044;-70
2022/01/30 03:06:12;;;;;;;16.80;3.85;;;6.20;99.90;;;;;;5113582;28;20470;-72
2022/01/30 03:08:38;;;;;;;14.40;2.70;;;6.40;99.90;;;;;;5114427;28;20128;-70
2022/01/30 03:11:04;;;;;;;18.17;3.72;;;6.30;99.90;;;;;;5114914;28;20114;-73
2022/01/30 03:13:30;;;;;;;16.58;2.63;;;6.40;99.90;;;;;;5114446;28;20047;-72
2022/01/30 03:16:00;;;;;;;16.63;3.47;;;6.70;99.90;;;;;;5113418;28;20042;-70
2022/01/30 03:18:26;;;;;;;22.00;4.40;;;6.50;99.90;;;;;;5114208;28;20047;-70
2022/01/30 03:20:51;;;;;;;26.13;4.07;;;6.40;99.90;;;;;;5114324;28;20111;-71
2022/01/30 03:23:17;;;;;;;22.13;4.13;;;6.50;99.90;;;;;;5112935;28;20114;-74
2022/01/30 03:25:44;;;;;;;19.52;3.55;;;6.40;99.90;;;;;;5114580;28;20039;-71
2022/01/30 03:28:09;;;;;;;22.35;4.32;;;6.30;99.90;;;;;;5114568;28;20050;-80
2022/01/30 03:30:36;;;;;;;19.30;3.72;;;6.30;99.90;;;;;;5096019;28;20130;-70
2022/01/30 03:33:02;;;;;;;30.73;5.18;;;6.30;99.90;;;;;;5112975;28;20043;-70
2022/01/30 03:35:28;;;;;;;19.52;3.50;;;6.40;99.90;;;;;;5113403;28;20047;-70
2022/01/30 03:37:53;;;;;;;19.58;3.33;;;6.60;99.90;;;;;;5113179;28;20119;-71
2022/01/30 03:40:19;;;;;;;20.85;4.22;;;6.80;99.90;;;;;;5114025;28;20040;-75
2022/01/30 03:42:45;;;;;;;17.38;4.03;;;6.30;99.90;;;;;;5112846;28;20124;-69
2022/01/30 03:45:11;;;;;;;19.40;4.05;;;6.70;99.90;;;;;;5113295;28;20470;-70
2022/01/30 03:47:36;;;;;;;26.35;4.10;;;6.70;99.90;;;;;;5113630;28;20075;-70
2022/01/30 03:50:03;;;;;;;15.27;3.70;;;6.60;99.90;;;;;;5113917;28;20044;-73
2022/01/30 03:52:29;;;;;;;21.00;3.85;;;6.40;99.90;;;;;;5113794;28;20051;-71
2022/01/30 03:54:55;;;;;;;20.70;4.10;;;6.60;99.90;;;;;;5112310;28;20564;-69
2022/01/30 03:57:20;;;;;;;20.58;4.22;;;6.40;99.90;;;;;;5114168;28;20051;-72
2022/01/30 03:59:46;;;;;;;16.55;3.72;;;6.80;99.90;;;;;;5118960;28;20044;-70
2022/01/30 04:02:12;;;;;;;22.17;3.95;;;6.80;99.90;;;;;;5100748;28;20352;-71
2022/01/30 04:04:37;;;;;;;29.27;4.70;;;6.50;99.90;;;;;;5116818;28;20139;-70
2022/01/30 04:07:03;;;;;;;24.63;4.15;;;7.20;99.90;;;;;;5118092;28;20122;-72
2022/01/30 04:09:29;;;;;;;25.77;5.03;;;6.40;99.90;;;;;;5117821;28;20040;-70
2022/01/30 04:11:55;;;;;;;19.45;3.83;;;6.40;99.90;;;;;;5116976;28;20062;-72
2022/01/30 04:14:21;;;;;;;22.17;4.53;;;6.40;99.90;;;;;;5116640;28;20043;-72
2022/01/30 04:16:47;;;;;;;27.63;4.47;;;6.50;99.90;;;;;;5117670;28;20039;-69
2022/01/30 04:19:14;;;;;;;22.10;4.70;;;6.40;99.90;;;;;;5116233;28;20100;-72
2022/01/30 04:21:40;;;;;;;27.90;5.03;;;6.60;99.90;;;;;;5117727;28;20043;-71
2022/01/30 04:24:06;;;;;;;26.02;4.47;;;6.50;99.90;;;;;;5100306;28;20104;-69
2022/01/30 04:26:32;;;;;;;22.75;4.25;;;6.40;99.90;;;;;;5118196;28;20052;-71
2022/01/30 04:28:58;;;;;;;26.42;5.03;;;6.60;99.90;;;;;;5117654;28;20043;-72
2022/01/30 04:31:24;;;;;;;26.75;4.65;;;6.40;99.90;;;;;;5116306;28;20051;-70
2022/01/30 04:33:50;;;;;;;23.60;4.38;;;6.60;99.90;;;;;;5116294;28;20079;-71
2022/01/30 04:36:22;;;;;;;27.25;4.22;;;6.50;99.90;;;;;;5116381;28;20047;-73
2022/01/30 04:39:11;;;;;;;18.13;4.05;;;6.60;99.90;;;;;;5117930;28;20087;-70
2022/01/30 04:42:09;;;;;;;19.92;3.42;;;6.60;99.90;;;;;;5102481;28;20050;-77
2022/01/30 05:09:18;;;;;;;21.67;4.03;;;6.10;99.90;;;;;;5116942;28;20126;-73
2022/01/30 05:11:44;;;;;;;20.88;3.50;;;6.20;99.90;;;;;;5115666;28;20135;-71
2022/01/30 05:14:10;;;;;;;25.83;3.97;;;6.60;99.90;;;;;;5115539;28;20040;-72
2022/01/30 05:16:38;;;;;;;17.85;3.28;;;6.20;99.90;;;;;;5115395;28;20126;-70
2022/01/30 05:19:04;;;;;;;20.27;3.65;;;6.40;99.90;;;;;;5116019;28;20044;-70
2022/01/30 05:21:30;;;;;;;26.30;4.97;;;6.20;99.90;;;;;;5116875;27;20055;-73
2022/01/30 05:23:56;;;;;;;25.83;4.18;;;6.30;99.90;;;;;;5115346;28;20044;-73
2022/01/30 05:26:25;;;;;;;22.83;4.10;;;6.30;99.90;;;;;;5116490;28;20051;-71
2022/01/30 05:28:51;;;;;;;26.15;5.60;;;6.30;99.90;;;;;;5116050;28;20059;-70
2022/01/30 05:31:17;;;;;;;23.75;5.20;;;6.20;99.90;;;;;;5115341;28;20052;-72
2022/01/30 05:33:43;;;;;;;22.10;4.70;;;6.30;99.90;;;;;;5098623;28;20048;-71
2022/01/30 05:36:09;;;;;;;25.08;5.30;;;6.60;99.90;;;;;;5115308;28;20048;-70
2022/01/30 05:38:35;;;;;;;23.05;4.95;;;6.60;99.90;;;;;;5115223;28;20391;-69
2022/01/30 05:41:02;;;;;;;24.42;4.88;;;6.20;99.90;;;;;;5116832;28;20035;-70
2022/01/30 05:43:30;;;;;;;24.75;4.82;;;6.30;99.90;;;;;;5098059;28;20491;-70
2022/01/30 05:46:08;;;;;;;22.35;4.32;;;6.00;99.90;;;;;;5115176;28;20468;-72
2022/01/30 05:48:34;;;;;;;20.15;3.90;;;5.90;99.90;;;;;;5116131;28;20087;-69
2022/01/30 05:51:00;;;;;;;18.10;3.85;;;5.80;99.90;;;;;;5115657;28;20092;-72
2022/01/30 05:53:26;;;;;;;25.35;4.18;;;5.70;99.90;;;;;;5115061;28;20047;-69
2022/01/30 05:55:52;;;;;;;24.52;4.78;;;6.40;99.90;;;;;;5097692;28;20050;-69
2022/01/30 05:58:18;;;;;;;25.27;4.65;;;5.80;99.90;;;;;;5115537;28;20372;-69
2022/01/30 06:00:43;;;;;;;23.13;5.07;;;6.20;99.90;;;;;;5114661;28;20036;-69
2022/01/30 06:03:09;;;;;;;31.05;5.32;;;5.50;99.90;;;;;;5080787;28;20055;-71
2022/01/30 06:05:35;;;;;;;25.67;5.25;;;5.50;99.90;;;;;;5114579;28;20080;-70
2022/01/30 06:08:10;;;;;;;25.67;4.88;;;5.50;99.90;;;;;;5097398;28;20051;-69
2022/01/30 06:10:36;;;;;;;22.00;4.72;;;5.70;99.90;;;;;;5115015;28;20035;-72
2022/01/30 06:13:02;;;;;;;27.63;5.75;;;5.50;99.90;;;;;;5115907;28;20395;-68
2022/01/30 06:15:28;;;;;;;27.35;5.43;;;5.50;99.90;;;;;;5115253;28;20047;-68
2022/01/30 06:17:54;;;;;;;27.20;5.82;;;5.40;99.90;;;;;;5114518;28;20039;-68
2022/01/30 06:20:19;;;;;;;24.65;5.28;;;5.70;99.90;;;;;;5114460;28;20088;-68
2022/01/30 06:22:45;;;;;;;28.42;4.93;;;5.70;99.90;;;;;;5115416;28;20186;-69
2022/01/30 06:25:11;;;;;;;23.88;4.72;;;5.30;99.90;;;;;;5115022;28;20046;-69
2022/01/30 06:27:37;;;;;;;27.52;4.95;;;5.40;99.90;;;;;;5115805;28;20038;-69
2022/01/30 06:30:05;;;;;;;28.40;5.07;;;5.40;99.90;;;;;;5115158;28;20047;-69
2022/01/30 06:32:31;;;;;;;26.33;5.65;;;5.50;99.90;;;;;;5114197;28;20047;-71
2022/01/30 06:34:56;;;;;;;25.17;4.35;;;6.10;99.90;;;;;;5098020;28;20184;-72
2022/01/30 06:37:22;;;;;;;29.20;5.30;;;5.80;99.90;;;;;;5114133;28;20509;-70
2022/01/30 06:39:48;;;;;;;34.58;5.13;;;5.80;99.90;;;;;;5115198;28;20051;-71
2022/01/30 06:42:14;;;;;;;27.15;4.60;;;5.90;99.90;;;;;;5114969;28;20036;-70
2022/01/30 06:44:42;;;;;;;31.63;6.75;;;5.60;99.90;;;;;;5114971;28;20047;-70
2022/01/30 06:47:08;;;;;;;27.63;6.07;;;5.90;99.90;;;;;;5114912;28;20043;-70
2022/01/30 06:49:34;;;;;;;25.77;5.25;;;5.80;99.90;;;;;;5115132;27;20130;-69
2022/01/30 06:52:00;;;;;;;26.67;5.07;;;5.60;99.90;;;;;;5113653;28;20500;-71
2022/01/30 06:54:25;;;;;;;16.50;3.72;;;5.90;99.90;;;;;;5113816;28;20052;-69
2022/01/30 06:56:51;;;;;;;21.70;4.22;;;5.60;99.90;;;;;;5114193;28;20136;-69
2022/01/30 06:59:17;;;;;;;17.63;3.40;;;5.60;99.90;;;;;;5115005;27;20075;-71
2022/01/30 07:01:43;;;;;;;19.67;3.03;;;5.60;99.90;;;;;;5114532;28;20470;-69
2022/01/30 07:04:08;;;;;;;19.30;3.50;;;5.50;99.90;;;;;;5080630;28;20120;-70
2022/01/30 07:06:34;;;;;;;20.08;4.07;;;5.70;99.90;;;;;;5114576;28;20043;-69
2022/01/30 07:09:00;;;;;;;15.98;3.45;;;5.90;99.90;;;;;;5113030;28;20078;-69
2022/01/30 07:11:25;;;;;;;18.55;3.45;;;6.10;99.90;;;;;;5112898;28;20048;-70
2022/01/30 07:13:51;;;;;;;18.85;3.33;;;6.10;99.90;;;;;;5114492;28;20039;-71
2022/01/30 07:16:17;;;;;;;17.27;3.15;;;5.90;99.90;;;;;;5114225;28;20130;-71
2022/01/30 07:18:43;;;;;;;17.08;3.25;;;5.60;99.90;;;;;;5113468;28;20054;-71
2022/01/30 07:21:09;;;;;;;19.42;2.95;;;5.90;99.90;;;;;;5114387;28;20532;-74
2022/01/30 07:23:38;;;;;;;17.58;2.72;;;6.20;99.90;;;;;;5114368;28;20083;-79
2022/01/30 07:26:04;;;;;;;15.38;3.20;;;6.10;99.90;;;;;;5114281;28;20043;-70
2022/01/30 07:28:30;;;;;;;21.38;3.15;;;5.90;99.90;;;;;;5114282;28;20055;-70
2022/01/30 07:30:56;;;;;;;22.55;4.75;;;5.60;99.90;;;;;;5113982;28;20036;-71
2022/01/30 07:33:23;;;;;;;19.63;3.45;;;5.70;99.90;;;;;;5113825;28;20071;-69
2022/01/30 07:35:52;;;;;;;24.63;3.67;;;5.60;99.90;;;;;;5114216;28;20044;-70
2022/01/30 07:38:19;;;;;;;14.98;3.42;;;5.70;99.90;;;;;;5114286;28;20047;-71
2022/01/30 07:40:45;;;;;;;27.35;4.53;;;5.60;99.90;;;;;;5113029;28;20048;-69
2022/01/30 07:43:10;;;;;;;21.38;5.05;;;6.00;99.90;;;;;;5115004;28;20074;-72
2022/01/30 07:45:36;;;;;;;20.38;5.47;;;5.90;99.90;;;;;;5096324;28;20503;-69
2022/01/30 07:48:02;;;;;;;21.58;5.65;;;6.00;99.90;;;;;;5114014;28;20096;-70
2022/01/30 07:50:29;;;;;;;18.65;3.78;;;5.70;99.90;;;;;;5113010;28;20039;-70
2022/01/30 07:52:54;;;;;;;22.83;4.03;;;5.80;99.90;;;;;;5112836;28;20039;-71
2022/01/30 07:55:20;;;;;;;21.42;3.75;;;5.80;99.90;;;;;;5095566;28;20116;-71
2022/01/30 07:57:46;;;;;;;18.35;3.95;;;6.40;99.90;;;;;;5113932;28;20059;-71
2022/01/30 08:00:13;;;;;;;24.02;4.68;;;6.30;99.90;;;;;;5113908;28;20039;-72
2022/01/30 08:02:39;;;;;;;25.83;4.50;;;5.90;99.90;;;;;;5113972;28;20126;-71
2022/01/30 08:05:05;;;;;;;20.95;4.40;;;6.40;99.90;;;;;;5096059;28;20126;-70
2022/01/30 08:07:31;;;;;;;24.17;4.55;;;5.90;99.90;;;;;;5113999;28;20440;-70
2022/01/30 08:09:57;;;;;;;29.45;5.00;;;6.30;99.90;;;;;;5113544;28;20131;-70
2022/01/30 08:12:23;;;;;;;24.45;4.50;;;6.00;99.90;;;;;;5113630;28;20040;-71
2022/01/30 08:14:49;;;;;;;26.90;4.97;;;6.10;99.90;;;;;;5114477;28;20039;-71
2022/01/30 08:17:21;;;;;;;21.75;4.05;;;6.20;99.90;;;;;;5113923;28;20048;-69
2022/01/30 08:19:47;;;;;;;20.15;3.92;;;6.00;99.90;;;;;;5112835;28;20050;-70
2022/01/30 08:22:14;;;;;;;24.75;4.03;;;6.00;99.90;;;;;;5113856;28;20049;-70
2022/01/30 08:24:39;;;;;;;24.88;3.70;;;6.00;99.90;;;;;;5112837;28;20483;-71
2022/01/30 08:27:06;;;;;;;26.58;3.90;;;6.40;99.90;;;;;;5113768;28;20040;-73
2022/01/30 08:29:32;;;;;;;22.45;5.15;;;6.10;99.90;;;;;;5112502;28;20058;-71
2022/01/30 08:31:59;;;;;;;22.27;4.82;;;6.10;99.90;;;;;;5113731;28;20052;-72
2022/01/30 08:34:26;;;;;;;21.40;4.60;;;6.10;99.90;;;;;;5114535;28;20083;-70
2022/01/30 08:36:52;;;;;;;24.92;4.55;;;6.40;99.90;;;;;;5113689;28;20135;-71
2022/01/30 08:39:18;;;;;;;29.50;5.00;;;6.10;99.90;;;;;;5112641;28;20502;-69
2022/01/30 08:41:44;;;;;;;23.65;5.22;;;6.20;99.90;;;;;;5113413;28;20546;-69
2022/01/30 08:44:10;;;;;;;20.40;5.32;;;6.40;99.90;;;;;;5117134;28;20123;-72
2022/01/30 08:46:35;;;;;;;21.67;5.85;;;6.10;99.90;;;;;;5116419;28;20048;-72
2022/01/30 08:49:01;;;;;;;21.88;3.67;;;6.30;99.90;;;;;;5116077;28;20043;-71
2022/01/30 08:51:27;;;;;;;27.88;4.50;;;6.00;99.90;;;;;;5116126;28;20093;-72
2022/01/30 08:53:53;;;;;;;25.63;3.75;;;6.30;99.90;;;;;;5099666;28;20396;-74
2022/01/30 08:56:21;;;;;;;22.83;4.22;;;6.30;99.90;;;;;;5117468;28;20430;-73
2022/01/30 08:58:48;;;;;;;23.00;4.30;;;6.30;99.90;;;;;;5099585;28;20051;-76
2022/01/30 09:01:14;;;;;;;21.70;3.97;;;6.30;99.90;;;;;;5116571;28;20044;-75
2022/01/30 09:03:40;;;;;;;19.15;3.42;;;6.20;99.90;;;;;;5115571;28;20032;-72
2022/01/30 09:06:06;;;;;;;13.93;3.40;;;6.10;99.90;;;;;;5117036;28;20404;-72
2022/01/30 09:08:32;;;;;;;23.10;4.38;;;6.30;99.90;;;;;;5117453;28;20046;-73
2022/01/30 09:10:58;;;;;;;25.75;4.43;;;6.20;99.90;;;;;;5116855;28;20040;-71
2022/01/30 09:13:24;;;;;;;21.80;4.28;;;6.20;99.90;;;;;;5116862;28;20136;-71
2022/01/30 09:15:56;;;;;;;18.08;3.83;;;6.10;99.90;;;;;;5116860;28;20044;-70
2022/01/30 09:18:22;;;;;;;28.25;5.05;;;6.50;99.90;;;;;;5116475;28;20480;-71
2022/01/30 09:20:48;;;;;;;23.83;4.75;;;6.20;99.90;;;;;;5116757;28;20047;-73
2022/01/30 09:23:13;;;;;;;29.83;5.65;;;6.10;99.90;;;;;;5115800;28;20051;-72
2022/01/30 09:25:40;;;;;;;24.88;4.07;;;6.20;99.90;;;;;;5115494;28;20456;-70
2022/01/30 09:28:06;;;;;;;24.85;4.88;;;6.50;99.90;;;;;;5117465;28;20043;-74
2022/01/30 09:30:32;;;;;;;24.95;4.22;;;6.60;99.90;;;;;;5115905;28;20443;-72
2022/01/30 09:32:58;;;;;;;23.25;4.80;;;6.20;99.90;;;;;;5116521;28;20380;-72
2022/01/30 09:35:25;;;;;;;24.42;4.32;;;6.50;99.90;;;;;;5115299;28;20104;-73
2022/01/30 09:37:51;;;;;;;22.85;4.68;;;6.60;99.90;;;;;;5117006;28;20043;-70
2022/01/30 09:40:19;;;;;;;23.10;4.53;;;6.50;99.90;;;;;;5115828;28;20046;-70
2022/01/30 09:42:46;;;;;;;22.50;4.90;;;6.70;99.90;;;;;;5115944;28;20479;-71
2022/01/30 09:45:18;;;;;;;26.40;4.30;;;6.60;99.90;;;;;;5116175;28;20051;-72
2022/01/30 09:47:45;;;;;;;22.85;4.72;;;6.40;99.90;;;;;;5115697;28;20100;-72
2022/01/30 09:50:11;;;;;;;25.08;4.60;;;6.40;99.90;;;;;;5115722;28;20119;-71
2022/01/30 09:52:37;;;;;;;23.63;4.50;;;6.80;99.90;;;;;;5114560;28;20080;-72
2022/01/30 09:55:08;;;;;;;23.13;4.82;;;6.70;99.90;;;;;;5114193;28;20487;-72
2022/01/30 09:57:35;;;;;;;31.17;4.50;;;6.20;99.90;;;;;;5115974;28;20378;-72
2022/01/30 10:00:02;;;;;;;25.27;4.85;;;7.20;99.90;;;;;;5116409;28;20394;-75
2022/01/30 10:02:28;;;;;;;20.88;3.85;;;6.50;99.90;;;;;;5115288;27;20475;-72
2022/01/30 10:04:54;;;;;;;23.63;4.30;;;6.50;99.90;;;;;;5114740;28;20043;-74
2022/01/30 10:07:22;;;;;;;19.73;4.20;;;6.90;99.90;;;;;;5114343;28;20039;-75
2022/01/30 10:09:49;;;;;;;27.02;4.63;;;6.90;99.90;;;;;;5114583;28;20471;-70
2022/01/30 10:12:20;;;;;;;25.38;4.43;;;7.00;99.90;;;;;;5115423;28;20108;-69
2022/01/30 10:14:52;;;;;;;25.50;4.50;;;6.60;99.90;;;;;;5114578;28;20143;-71
2022/01/30 10:17:34;;;;;;;27.08;4.03;;;6.70;99.90;;;;;;5114126;28;20044;-70
2022/01/30 10:20:09;;;;;;;25.33;4.13;;;6.70;99.90;;;;;;5115330;28;20047;-76
2022/01/30 10:22:50;;;;;;;25.40;5.10;;;6.60;99.90;;;;;;5113873;28;20342;-71
2022/01/30 10:25:20;;;;;;;22.38;4.53;;;6.70;99.90;;;;;;5114325;28;20044;-72
2022/01/30 10:27:47;;;;;;;24.23;5.25;;;6.60;99.90;;;;;;5114260;28;20060;-71
2022/01/30 10:30:21;;;;;;;23.67;4.20;;;6.70;99.90;;;;;;5115305;28;20050;-70
2022/01/30 10:32:55;;;;;;;19.45;3.55;;;6.80;99.90;;;;;;5115372;28;20054;-72
2022/01/30 10:35:21;;;;;;;22.20;4.90;;;7.30;99.90;;;;;;5114782;28;20140;-72
2022/01/30 10:37:46;;;;;;;26.23;4.13;;;6.80;99.90;;;;;;5080242;28;20128;-71
2022/01/30 10:40:17;;;;;;;22.20;4.20;;;6.90;99.90;;;;;;5114617;28;20046;-69
2022/01/30 10:42:52;;;;;;;25.48;4.63;;;7.10;99.90;;;;;;5114470;28;20051;-70
2022/01/30 10:45:33;;;;;;;21.90;4.97;;;6.80;99.90;;;;;;5096759;28;20122;-69
2022/01/30 10:48:16;;;;;;;22.25;3.85;;;7.50;99.90;;;;;;5113305;28;20047;-70
2022/01/30 10:50:44;;;;;;;18.73;4.68;;;6.80;99.90;;;;;;5114546;28;20092;-69
2022/01/30 10:53:20;;;;;;;25.50;3.95;;;6.90;99.90;;;;;;5113826;28;20425;-74
2022/01/30 10:55:47;;;;;;;32.67;5.32;;;6.80;99.90;;;;;;5114179;28;20106;-71
2022/01/30 10:58:18;;;;;;;24.15;3.90;;;6.80;99.90;;;;;;5114543;28;20051;-71
2022/01/30 11:00:55;;;;;;;31.13;5.45;;;6.80;99.90;;;;;;5114402;28;20059;-75
2022/01/30 11:03:39;;;;;;;18.80;4.15;;;7.00;99.90;;;;;;5097062;28;20471;-70
2022/01/30 11:06:10;;;;;;;20.42;4.15;;;6.80;99.90;;;;;;5113940;28;20494;-70
2022/01/30 11:08:40;;;;;;;24.00;4.13;;;6.80;99.90;;;;;;5114995;28;20039;-73
2022/01/30 11:19:19;;;;;;;18.42;3.17;;;7.00;99.90;;;;;;5114763;28;20051;-73
2022/01/30 11:21:59;;;;;;;20.27;3.50;;;7.20;99.90;;;;;;5114011;28;20044;-74
2022/01/30 11:24:26;;;;;;;23.65;4.50;;;7.20;99.90;;;;;;5113757;28;20044;-71
2022/01/30 11:26:53;;;;;;;19.50;3.67;;;7.00;99.90;;;;;;5114398;28;20043;-73
2022/01/30 11:29:22;;;;;;;16.60;3.10;;;7.20;99.90;;;;;;5112857;28;20441;-71
2022/01/30 11:31:49;;;;;;;21.83;4.22;;;7.50;99.90;;;;;;5114597;28;20126;-71
2022/01/30 11:34:15;;;;;;;20.80;3.85;;;7.40;99.90;;;;;;5112614;28;20051;-72
2022/01/30 11:36:45;;;;;;;20.75;3.20;;;7.20;99.90;;;;;;5113708;28;20052;-72
2022/01/30 11:39:17;;;;;;;24.08;3.67;;;7.30;99.90;;;;;;5113671;28;20046;-72
2022/01/30 11:42:08;;;;;;;18.60;3.53;;;7.20;99.90;;;;;;5112961;28;20047;-70
2022/01/30 11:44:35;;;;;;;20.65;4.40;;;7.10;99.90;;;;;;5114231;28;20086;-71
2022/01/30 11:47:03;;;;;;;24.25;4.03;;;7.50;99.90;;;;;;5113648;28;20138;-75
2022/01/30 11:49:41;;;;;;;15.30;3.17;;;8.10;99.90;;;;;;5114353;28;20047;-69
2022/01/30 11:52:10;;;;;;;16.58;3.80;;;7.10;99.90;;;;;;5113602;28;20047;-69
2022/01/30 11:54:41;;;;;;;21.70;3.97;;;7.10;99.90;;;;;;5113332;28;20047;-71
2022/01/30 11:57:22;;;;;;;25.50;3.63;;;7.10;99.90;;;;;;5112361;28;20050;-68
2022/01/30 11:59:50;;;;;;;17.38;3.53;;;7.40;99.90;;;;;;5115359;28;20040;-68
2022/01/30 12:02:23;;;;;;;23.42;4.30;;;7.10;99.90;;;;;;5117122;28;20051;-69
2022/01/30 12:05:00;;;;;;;24.58;4.88;;;7.20;99.90;;;;;;5113600;28;20051;-68
2022/01/30 12:07:35;;;;;;;17.08;3.65;;;7.10;99.90;;;;;;5113611;28;20047;-68
2022/01/30 12:10:27;;;;;;;20.05;4.15;;;7.50;99.90;;;;;;5112359;28;20105;-67
2022/01/30 12:12:57;;;;;;;24.48;3.83;;;7.30;99.90;;;;;;5110254;28;20407;-67
2022/01/30 12:15:42;;;;;;;18.17;3.47;;;7.30;99.90;;;;;;5114129;28;20132;-70
2022/01/30 12:18:15;;;;;;;27.20;3.63;;;7.30;99.90;;;;;;5114418;28;20043;-69
2022/01/30 12:20:57;;;;;;;20.98;3.90;;;7.20;99.90;;;;;;5116208;28;20126;-69
2022/01/30 12:23:28;;;;;;;24.17;4.18;;;7.20;99.90;;;;;;5117356;28;20051;-69
2022/01/30 12:26:03;;;;;;;18.70;3.95;;;7.50;99.90;;;;;;5117262;28;20502;-70
2022/01/30 12:28:41;;;;;;;25.35;4.43;;;7.50;99.90;;;;;;5117489;28;20046;-69
2022/01/30 12:31:30;;;;;;;23.48;4.25;;;7.40;99.90;;;;;;5116437;28;20040;-72
2022/01/30 12:33:58;;;;;;;18.67;4.30;;;7.30;99.90;;;;;;5107561;28;20055;-70
2022/01/30 12:36:24;;;;;;;20.63;3.42;;;7.30;99.90;;;;;;5117119;28;20043;-71
2022/01/30 12:39:21;;;;;;;21.63;3.70;;;7.00;99.90;;;;;;5099864;28;20458;-70
2022/01/30 12:41:48;;;;;;;22.10;3.83;;;7.00;99.90;;;;;;5109562;28;20104;-71
2022/01/30 12:44:23;;;;;;;24.65;4.20;;;7.20;99.90;;;;;;5117817;28;20062;-69
2022/01/30 12:46:53;;;;;;;23.50;4.13;;;7.40;99.90;;;;;;5117589;28;20051;-71
2022/01/30 12:49:25;;;;;;;23.90;4.20;;;7.40;99.90;;;;;;5098777;28;20097;-70
2022/01/30 12:51:54;;;;;;;21.25;3.50;;;7.50;99.90;;;;;;5116841;28;20118;-71
2022/01/30 12:54:25;;;;;;;21.77;3.25;;;7.10;99.90;;;;;;5117301;28;20048;-72
2022/01/30 12:56:53;;;;;;;24.00;4.05;;;7.40;99.90;;;;;;5117562;28;20104;-70
2022/01/30 12:59:23;;;;;;;23.02;4.88;;;7.30;99.90;;;;;;5098223;28;20474;-70
2022/01/30 13:01:49;;;;;;;20.50;4.00;;;7.20;99.90;;;;;;5116689;28;20189;-69
2022/01/30 13:04:28;;;;;;;19.08;3.60;;;7.20;99.90;;;;;;5116599;28;20505;-71
2022/01/30 13:06:54;;;;;;;16.20;3.45;;;7.20;99.90;;;;;;5116614;28;20058;-71
2022/01/30 13:09:31;;;;;;;18.85;4.35;;;7.20;99.90;;;;;;5116786;28;20039;-69
2022/01/30 13:11:59;;;;;;;15.73;3.15;;;7.30;99.90;;;;;;5116252;28;20122;-70
2022/01/30 13:14:41;;;;;;;18.52;2.75;;;7.10;99.90;;;;;;5115235;28;20605;-70
2022/01/30 13:17:08;;;;;;;20.25;3.25;;;7.10;99.90;;;;;;5117009;28;20040;-70
2022/01/30 13:19:35;;;;;;;17.63;2.80;;;7.20;99.90;;;;;;5115148;28;20035;-70
2022/01/30 13:22:06;;;;;;;16.30;2.75;;;7.20;99.90;;;;;;5115448;28;20054;-69
2022/01/30 13:24:33;;;;;;;19.20;3.53;;;7.00;99.90;;;;;;5115261;28;20051;-70
2022/01/30 13:27:04;;;;;;;16.10;3.00;;;7.20;99.90;;;;;;5116139;28;20452;-70
2022/01/30 13:29:33;;;;;;;20.38;4.10;;;7.20;99.90;;;;;;5115706;28;20044;-72
2022/01/30 13:32:01;;;;;;;14.68;2.83;;;7.00;99.90;;;;;;5115079;28;20130;-69
2022/01/30 13:34:29;;;;;;;15.90;2.60;;;6.90;99.90;;;;;;5114953;28;20487;-69
2022/01/30 13:37:19;;;;;;;16.77;2.88;;;7.00;99.90;;;;;;5115994;28;20055;-70
2022/01/30 13:40:13;;;;;;;18.23;3.25;;;7.10;98.60;;;;;;5115691;28;20109;-70
2022/01/30 13:48:10;;;;;;;18.33;3.17;;;6.80;99.90;;;;;;5115955;28;20051;-69
2022/01/30 13:50:53;;;;;;;21.92;3.10;;;6.90;99.90;;;;;;5114560;28;20035;-70
2022/01/30 13:53:22;;;;;;;20.08;3.05;;;6.80;99.90;;;;;;5097975;28;20452;-69
2022/01/30 13:55:55;;;;;;;17.05;3.03;;;6.90;99.90;;;;;;5115200;28;20515;-72
2022/01/30 13:58:23;;;;;;;12.27;3.00;;;6.80;99.90;;;;;;5116175;28;20101;-70
2022/01/30 14:00:49;;;;;;;15.52;3.25;;;7.00;99.90;;;;;;5115598;28;20044;-70
2022/01/30 14:03:27;;;;;;;22.67;3.30;;;6.70;99.90;;;;;;5097394;28;20043;-70
2022/01/30 14:05:54;;;;;;;15.73;3.10;;;7.00;99.90;;;;;;5114341;28;20096;-71